sensor_id;sensor_type;location;lat;lon;timestamp;P1;durP1;ratioP1;P2;durP2;ratioP2
34019;SDS011;20895;51.034;3.742;2023-06-19T00:01:40;6.63;;;4.43;;
34019;SDS011;20895;51.034;3.742;2023-06-19T00:04:05;5.85;;;4.75;;
34019;SDS011;20895;51.034;3.742;2023-06-19T00:06:30;5.63;;;4.85;;
34019;SDS011;20895;51.034;3.742;2023-06-19T00:08:55;4.93;;;4.40;;
34019;SDS011;20895;51.034;3.742;2023-06-19T00:11:21;5.50;;;4.30;;
34019;SDS011;20895;51.034;3.742;2023-06-19T00:13:46;4.72;;;3.53;;
34019;SDS011;20895;51.034;3.742;2023-06-19T00:16:11;5.43;;;3.83;;
34019;SDS011;20895;51.034;3.742;2023-06-19T00:18:36;7.20;;;3.72;;
34019;SDS011;20895;51.034;3.742;2023-06-19T00:21:05;5.97;;;3.70;;
34019;SDS011;20895;51.034;3.742;2023-06-19T00:23:30;6.80;;;4.10;;
34019;SDS011;20895;51.034;3.742;2023-06-19T00:25:56;5.33;;;4.17;;
34019;SDS011;20895;51.034;3.742;2023-06-19T00:28:21;7.10;;;3.67;;
34019;SDS011;20895;51.034;3.742;2023-06-19T00:30:46;4.75;;;3.63;;
34019;SDS011;20895;51.034;3.742;2023-06-19T00:33:11;5.05;;;4.28;;
34019;SDS011;20895;51.034;3.742;2023-06-19T00:35:37;7.95;;;4.00;;
34019;SDS011;20895;51.034;3.742;2023-06-19T00:38:02;16.45;;;7.25;;
34019;SDS011;20895;51.034;3.742;2023-06-19T00:40:28;6.97;;;4.05;;
34019;SDS011;20895;51.034;3.742;2023-06-19T00:42:54;7.35;;;5.07;;
34019;SDS011;20895;51.034;3.742;2023-06-19T00:45:19;7.43;;;3.83;;
34019;SDS011;20895;51.034;3.742;2023-06-19T00:47:45;6.45;;;3.72;;
34019;SDS011;20895;51.034;3.742;2023-06-19T00:50:10;5.03;;;4.35;;
34019;SDS011;20895;51.034;3.742;2023-06-19T00:52:36;4.47;;;4.00;;
34019;SDS011;20895;51.034;3.742;2023-06-19T00:55:01;7.13;;;4.57;;
34019;SDS011;20895;51.034;3.742;2023-06-19T00:57:27;3.90;;;3.47;;
34019;SDS011;20895;51.034;3.742;2023-06-19T00:59:52;4.38;;;3.75;;
34019;SDS011;20895;51.034;3.742;2023-06-19T01:02:18;5.88;;;3.70;;
34019;SDS011;20895;51.034;3.742;2023-06-19T01:04:48;5.65;;;3.45;;
34019;SDS011;20895;51.034;3.742;2023-06-19T01:07:14;6.00;;;3.85;;
34019;SDS011;20895;51.034;3.742;2023-06-19T01:09:46;4.68;;;3.50;;
34019;SDS011;20895;51.034;3.742;2023-06-19T01:12:16;5.60;;;3.67;;
34019;SDS011;20895;51.034;3.742;2023-06-19T01:17:13;4.85;;;3.17;;
34019;SDS011;20895;51.034;3.742;2023-06-19T01:19:39;4.95;;;3.50;;
34019;SDS011;20895;51.034;3.742;2023-06-19T01:22:04;5.93;;;3.50;;
34019;SDS011;20895;51.034;3.742;2023-06-19T01:24:29;4.10;;;3.67;;
34019;SDS011;20895;51.034;3.742;2023-06-19T01:26:55;4.30;;;3.40;;
34019;SDS011;20895;51.034;3.742;2023-06-19T01:29:20;3.70;;;3.30;;
34019;SDS011;20895;51.034;3.742;2023-06-19T01:31:49;5.20;;;4.10;;
34019;SDS011;20895;51.034;3.742;2023-06-19T01:34:16;7.95;;;3.92;;
34019;SDS011;20895;51.034;3.742;2023-06-19T01:36:42;9.05;;;4.22;;
34019;SDS011;20895;51.034;3.742;2023-06-19T01:39:08;5.85;;;4.57;;
34019;SDS011;20895;51.034;3.742;2023-06-19T01:41:34;5.30;;;4.63;;
34019;SDS011;20895;51.034;3.742;2023-06-19T01:44:00;5.75;;;4.72;;
34019;SDS011;20895;51.034;3.742;2023-06-19T01:46:26;6.40;;;4.28;;
34019;SDS011;20895;51.034;3.742;2023-06-19T01:48:51;6.40;;;5.38;;
34019;SDS011;20895;51.034;3.742;2023-06-19T01:51:18;7.63;;;5.78;;
34019;SDS011;20895;51.034;3.742;2023-06-19T01:53:43;5.90;;;5.28;;
34019;SDS011;20895;51.034;3.742;2023-06-19T01:56:08;5.80;;;5.10;;
34019;SDS011;20895;51.034;3.742;2023-06-19T01:58:33;5.43;;;4.65;;
34019;SDS011;20895;51.034;3.742;2023-06-19T02:00:59;5.97;;;4.68;;
34019;SDS011;20895;51.034;3.742;2023-06-19T02:03:24;4.30;;;3.50;;
34019;SDS011;20895;51.034;3.742;2023-06-19T02:05:50;5.63;;;3.13;;
34019;SDS011;20895;51.034;3.742;2023-06-19T02:08:15;5.40;;;2.80;;
34019;SDS011;20895;51.034;3.742;2023-06-19T02:10:40;3.30;;;2.65;;
34019;SDS011;20895;51.034;3.742;2023-06-19T02:13:06;2.63;;;2.30;;
34019;SDS011;20895;51.034;3.742;2023-06-19T02:15:31;2.77;;;2.17;;
34019;SDS011;20895;51.034;3.742;2023-06-19T02:17:56;2.35;;;2.15;;
34019;SDS011;20895;51.034;3.742;2023-06-19T02:20:22;2.65;;;1.88;;
34019;SDS011;20895;51.034;3.742;2023-06-19T02:22:49;2.42;;;1.63;;
34019;SDS011;20895;51.034;3.742;2023-06-19T02:25:15;5.53;;;2.35;;
34019;SDS011;20895;51.034;3.742;2023-06-19T02:27:40;6.30;;;4.47;;
34019;SDS011;20895;51.034;3.742;2023-06-19T02:30:05;2.85;;;2.40;;
34019;SDS011;20895;51.034;3.742;2023-06-19T02:32:31;2.70;;;2.50;;
34019;SDS011;20895;51.034;3.742;2023-06-19T02:34:56;5.32;;;2.95;;
34019;SDS011;20895;51.034;3.742;2023-06-19T02:37:22;4.63;;;3.17;;
34019;SDS011;20895;51.034;3.742;2023-06-19T02:39:47;4.35;;;3.30;;
34019;SDS011;20895;51.034;3.742;2023-06-19T02:42:12;5.57;;;3.92;;
34019;SDS011;20895;51.034;3.742;2023-06-19T02:44:37;7.60;;;4.18;;
34019;SDS011;20895;51.034;3.742;2023-06-19T02:47:03;5.28;;;4.13;;
34019;SDS011;20895;51.034;3.742;2023-06-19T02:49:28;4.43;;;3.50;;
34019;SDS011;20895;51.034;3.742;2023-06-19T02:51:53;4.13;;;3.53;;
34019;SDS011;20895;51.034;3.742;2023-06-19T02:54:19;7.50;;;3.45;;
34019;SDS011;20895;51.034;3.742;2023-06-19T02:56:44;5.47;;;4.00;;
34019;SDS011;20895;51.034;3.742;2023-06-19T02:59:09;4.70;;;3.70;;
34019;SDS011;20895;51.034;3.742;2023-06-19T03:01:34;5.75;;;4.70;;
34019;SDS011;20895;51.034;3.742;2023-06-19T03:04:00;5.93;;;4.80;;
34019;SDS011;20895;51.034;3.742;2023-06-19T03:06:25;5.68;;;4.50;;
34019;SDS011;20895;51.034;3.742;2023-06-19T03:08:51;7.72;;;5.28;;
34019;SDS011;20895;51.034;3.742;2023-06-19T03:11:16;6.57;;;5.22;;
34019;SDS011;20895;51.034;3.742;2023-06-19T03:13:49;7.15;;;5.63;;
34019;SDS011;20895;51.034;3.742;2023-06-19T03:16:15;7.07;;;6.10;;
34019;SDS011;20895;51.034;3.742;2023-06-19T03:18:41;8.35;;;6.53;;
34019;SDS011;20895;51.034;3.742;2023-06-19T03:21:06;7.20;;;6.50;;
34019;SDS011;20895;51.034;3.742;2023-06-19T03:23:32;8.52;;;7.65;;
34019;SDS011;20895;51.034;3.742;2023-06-19T03:25:57;9.75;;;7.47;;
34019;SDS011;20895;51.034;3.742;2023-06-19T03:28:23;8.57;;;7.60;;
34019;SDS011;20895;51.034;3.742;2023-06-19T03:30:48;8.75;;;7.85;;
34019;SDS011;20895;51.034;3.742;2023-06-19T03:33:13;10.40;;;7.75;;
34019;SDS011;20895;51.034;3.742;2023-06-19T03:35:38;10.38;;;8.73;;
34019;SDS011;20895;51.034;3.742;2023-06-19T03:38:04;11.63;;;9.73;;
34019;SDS011;20895;51.034;3.742;2023-06-19T03:40:29;10.10;;;9.10;;
34019;SDS011;20895;51.034;3.742;2023-06-19T03:42:54;9.57;;;8.65;;
34019;SDS011;20895;51.034;3.742;2023-06-19T03:45:19;10.18;;;9.18;;
34019;SDS011;20895;51.034;3.742;2023-06-19T03:47:44;13.23;;;8.25;;
34019;SDS011;20895;51.034;3.742;2023-06-19T03:50:10;13.30;;;9.17;;
34019;SDS011;20895;51.034;3.742;2023-06-19T03:52:38;11.02;;;9.90;;
34019;SDS011;20895;51.034;3.742;2023-06-19T03:55:04;11.45;;;9.45;;
34019;SDS011;20895;51.034;3.742;2023-06-19T03:57:29;12.50;;;9.32;;
34019;SDS011;20895;51.034;3.742;2023-06-19T03:59:54;11.32;;;10.23;;
34019;SDS011;20895;51.034;3.742;2023-06-19T04:02:19;11.30;;;9.50;;
34019;SDS011;20895;51.034;3.742;2023-06-19T04:04:45;11.20;;;9.88;;
34019;SDS011;20895;51.034;3.742;2023-06-19T04:07:10;11.95;;;10.85;;
34019;SDS011;20895;51.034;3.742;2023-06-19T04:09:35;11.23;;;9.88;;
34019;SDS011;20895;51.034;3.742;2023-06-19T04:12:02;11.15;;;10.05;;
34019;SDS011;20895;51.034;3.742;2023-06-19T04:14:27;15.13;;;10.98;;
34019;SDS011;20895;51.034;3.742;2023-06-19T04:16:52;17.35;;;13.65;;
34019;SDS011;20895;51.034;3.742;2023-06-19T04:19:18;13.55;;;12.15;;
34019;SDS011;20895;51.034;3.742;2023-06-19T04:21:43;13.50;;;12.10;;
34019;SDS011;20895;51.034;3.742;2023-06-19T04:24:08;13.45;;;12.05;;
34019;SDS011;20895;51.034;3.742;2023-06-19T04:26:34;15.27;;;13.68;;
34019;SDS011;20895;51.034;3.742;2023-06-19T04:28:59;16.88;;;13.48;;
34019;SDS011;20895;51.034;3.742;2023-06-19T04:31:26;15.40;;;13.80;;
34019;SDS011;20895;51.034;3.742;2023-06-19T04:33:51;17.65;;;14.48;;
34019;SDS011;20895;51.034;3.742;2023-06-19T04:36:17;17.23;;;15.32;;
34019;SDS011;20895;51.034;3.742;2023-06-19T04:38:42;17.63;;;15.98;;
34019;SDS011;20895;51.034;3.742;2023-06-19T04:41:09;19.52;;;17.48;;
34019;SDS011;20895;51.034;3.742;2023-06-19T04:43:34;19.05;;;17.05;;
34019;SDS011;20895;51.034;3.742;2023-06-19T04:45:59;19.70;;;17.77;;
34019;SDS011;20895;51.034;3.742;2023-06-19T04:48:25;19.63;;;17.20;;
34019;SDS011;20895;51.034;3.742;2023-06-19T04:50:51;20.98;;;18.45;;
34019;SDS011;20895;51.034;3.742;2023-06-19T04:53:16;19.38;;;17.58;;
34019;SDS011;20895;51.034;3.742;2023-06-19T04:55:42;21.25;;;18.25;;
34019;SDS011;20895;51.034;3.742;2023-06-19T04:58:08;20.13;;;18.00;;
34019;SDS011;20895;51.034;3.742;2023-06-19T05:00:33;21.15;;;18.17;;
34019;SDS011;20895;51.034;3.742;2023-06-19T05:02:59;21.05;;;18.67;;
34019;SDS011;20895;51.034;3.742;2023-06-19T05:05:26;20.48;;;18.20;;
34019;SDS011;20895;51.034;3.742;2023-06-19T05:07:52;20.42;;;18.33;;
34019;SDS011;20895;51.034;3.742;2023-06-19T05:10:17;19.05;;;17.10;;
34019;SDS011;20895;51.034;3.742;2023-06-19T05:12:42;18.42;;;16.52;;
34019;SDS011;20895;51.034;3.742;2023-06-19T05:15:08;19.73;;;17.63;;
34019;SDS011;20895;51.034;3.742;2023-06-19T05:17:33;16.83;;;15.13;;
34019;SDS011;20895;51.034;3.742;2023-06-19T05:19:58;17.27;;;15.65;;
34019;SDS011;20895;51.034;3.742;2023-06-19T05:22:23;20.75;;;15.60;;
34019;SDS011;20895;51.034;3.742;2023-06-19T05:24:49;17.63;;;15.18;;
34019;SDS011;20895;51.034;3.742;2023-06-19T05:27:14;17.95;;;15.48;;
34019;SDS011;20895;51.034;3.742;2023-06-19T05:29:40;16.38;;;14.68;;
34019;SDS011;20895;51.034;3.742;2023-06-19T05:32:05;19.98;;;15.73;;
34019;SDS011;20895;51.034;3.742;2023-06-19T05:34:30;16.38;;;14.70;;
34019;SDS011;20895;51.034;3.742;2023-06-19T05:36:56;16.40;;;14.68;;
34019;SDS011;20895;51.034;3.742;2023-06-19T05:39:21;19.80;;;17.70;;
34019;SDS011;20895;51.034;3.742;2023-06-19T05:41:46;19.52;;;17.45;;
34019;SDS011;20895;51.034;3.742;2023-06-19T05:44:12;18.48;;;16.63;;
34019;SDS011;20895;51.034;3.742;2023-06-19T05:46:41;18.45;;;15.93;;
34019;SDS011;20895;51.034;3.742;2023-06-19T05:49:06;17.77;;;15.90;;
34019;SDS011;20895;51.034;3.742;2023-06-19T05:51:32;19.52;;;17.52;;
34019;SDS011;20895;51.034;3.742;2023-06-19T05:53:57;18.67;;;15.82;;
34019;SDS011;20895;51.034;3.742;2023-06-19T05:56:28;19.05;;;15.85;;
34019;SDS011;20895;51.034;3.742;2023-06-19T05:58:53;16.45;;;13.70;;
34019;SDS011;20895;51.034;3.742;2023-06-19T06:01:18;18.50;;;14.45;;
34019;SDS011;20895;51.034;3.742;2023-06-19T06:03:44;16.73;;;15.02;;
34019;SDS011;20895;51.034;3.742;2023-06-19T06:06:09;18.05;;;14.52;;
34019;SDS011;20895;51.034;3.742;2023-06-19T06:08:34;16.55;;;14.88;;
34019;SDS011;20895;51.034;3.742;2023-06-19T06:11:00;16.88;;;15.15;;
34019;SDS011;20895;51.034;3.742;2023-06-19T06:13:26;18.23;;;16.15;;
34019;SDS011;20895;51.034;3.742;2023-06-19T06:15:51;17.55;;;15.85;;
34019;SDS011;20895;51.034;3.742;2023-06-19T06:18:16;17.48;;;15.05;;
34019;SDS011;20895;51.034;3.742;2023-06-19T06:20:42;19.10;;;16.08;;
34019;SDS011;20895;51.034;3.742;2023-06-19T06:23:07;15.45;;;13.95;;
34019;SDS011;20895;51.034;3.742;2023-06-19T06:25:32;16.98;;;15.23;;
34019;SDS011;20895;51.034;3.742;2023-06-19T06:27:58;17.65;;;15.95;;
34019;SDS011;20895;51.034;3.742;2023-06-19T06:30:23;20.75;;;15.25;;
34019;SDS011;20895;51.034;3.742;2023-06-19T06:32:49;17.17;;;15.35;;
34019;SDS011;20895;51.034;3.742;2023-06-19T06:35:14;16.27;;;14.55;;
34019;SDS011;20895;51.034;3.742;2023-06-19T06:37:40;17.00;;;15.00;;
34019;SDS011;20895;51.034;3.742;2023-06-19T06:40:06;20.65;;;14.38;;
34019;SDS011;20895;51.034;3.742;2023-06-19T06:42:34;18.90;;;15.02;;
34019;SDS011;20895;51.034;3.742;2023-06-19T06:44:59;16.15;;;14.55;;
34019;SDS011;20895;51.034;3.742;2023-06-19T06:47:24;16.20;;;14.52;;
34019;SDS011;20895;51.034;3.742;2023-06-19T06:49:50;16.42;;;14.82;;
34019;SDS011;20895;51.034;3.742;2023-06-19T06:52:15;16.98;;;13.65;;
34019;SDS011;20895;51.034;3.742;2023-06-19T06:54:40;15.13;;;13.55;;
34019;SDS011;20895;51.034;3.742;2023-06-19T06:57:06;20.17;;;14.25;;
34019;SDS011;20895;51.034;3.742;2023-06-19T06:59:31;14.82;;;13.43;;
34019;SDS011;20895;51.034;3.742;2023-06-19T07:01:56;16.23;;;14.52;;
34019;SDS011;20895;51.034;3.742;2023-06-19T07:04:22;16.80;;;13.13;;
34019;SDS011;20895;51.034;3.742;2023-06-19T07:06:47;15.88;;;13.90;;
34019;SDS011;20895;51.034;3.742;2023-06-19T07:09:14;15.52;;;13.48;;
34019;SDS011;20895;51.034;3.742;2023-06-19T07:11:40;15.77;;;14.13;;
34019;SDS011;20895;51.034;3.742;2023-06-19T07:14:05;16.25;;;13.80;;
34019;SDS011;20895;51.034;3.742;2023-06-19T07:16:30;18.27;;;16.40;;
34019;SDS011;20895;51.034;3.742;2023-06-19T07:18:56;23.27;;;18.13;;
34019;SDS011;20895;51.034;3.742;2023-06-19T07:21:21;20.35;;;18.35;;
34019;SDS011;20895;51.034;3.742;2023-06-19T07:23:46;18.40;;;16.48;;
34019;SDS011;20895;51.034;3.742;2023-06-19T07:26:15;19.30;;;17.45;;
34019;SDS011;20895;51.034;3.742;2023-06-19T07:28:41;19.13;;;17.15;;
34019;SDS011;20895;51.034;3.742;2023-06-19T07:31:08;19.00;;;17.10;;
34019;SDS011;20895;51.034;3.742;2023-06-19T07:33:34;20.13;;;17.90;;
34019;SDS011;20895;51.034;3.742;2023-06-19T07:36:00;20.02;;;17.92;;
34019;SDS011;20895;51.034;3.742;2023-06-19T07:38:27;19.92;;;18.15;;
34019;SDS011;20895;51.034;3.742;2023-06-19T07:40:52;20.83;;;18.65;;
34019;SDS011;20895;51.034;3.742;2023-06-19T07:43:18;18.05;;;16.25;;
34019;SDS011;20895;51.034;3.742;2023-06-19T07:45:43;18.85;;;16.48;;
34019;SDS011;20895;51.034;3.742;2023-06-19T07:48:08;17.38;;;15.63;;
34019;SDS011;20895;51.034;3.742;2023-06-19T07:50:34;18.48;;;16.63;;
34019;SDS011;20895;51.034;3.742;2023-06-19T07:52:59;17.63;;;15.98;;
34019;SDS011;20895;51.034;3.742;2023-06-19T07:55:24;17.40;;;15.70;;
34019;SDS011;20895;51.034;3.742;2023-06-19T07:57:50;15.93;;;14.32;;
34019;SDS011;20895;51.034;3.742;2023-06-19T08:00:17;16.73;;;15.02;;
34019;SDS011;20895;51.034;3.742;2023-06-19T08:02:42;15.25;;;13.85;;
34019;SDS011;20895;51.034;3.742;2023-06-19T08:05:08;17.13;;;13.73;;
34019;SDS011;20895;51.034;3.742;2023-06-19T08:07:36;14.65;;;13.10;;
34019;SDS011;20895;51.034;3.742;2023-06-19T08:10:02;15.02;;;13.52;;
34019;SDS011;20895;51.034;3.742;2023-06-19T08:12:29;14.73;;;13.20;;
34019;SDS011;20895;51.034;3.742;2023-06-19T08:14:54;16.27;;;14.55;;
34019;SDS011;20895;51.034;3.742;2023-06-19T08:17:19;15.77;;;14.13;;
34019;SDS011;20895;51.034;3.742;2023-06-19T08:19:44;14.35;;;12.88;;
34019;SDS011;20895;51.034;3.742;2023-06-19T08:22:10;15.57;;;13.48;;
34019;SDS011;20895;51.034;3.742;2023-06-19T08:24:36;14.82;;;12.32;;
34019;SDS011;20895;51.034;3.742;2023-06-19T08:27:01;14.52;;;12.10;;
34019;SDS011;20895;51.034;3.742;2023-06-19T08:29:27;15.38;;;11.82;;
34019;SDS011;20895;51.034;3.742;2023-06-19T08:31:52;13.07;;;11.63;;
34019;SDS011;20895;51.034;3.742;2023-06-19T08:34:17;14.15;;;11.80;;
34019;SDS011;20895;51.034;3.742;2023-06-19T08:36:42;12.73;;;11.53;;
34019;SDS011;20895;51.034;3.742;2023-06-19T08:39:07;13.00;;;11.05;;
34019;SDS011;20895;51.034;3.742;2023-06-19T08:41:33;12.40;;;9.63;;
34019;SDS011;20895;51.034;3.742;2023-06-19T08:43:58;13.55;;;10.55;;
34019;SDS011;20895;51.034;3.742;2023-06-19T08:46:24;12.40;;;11.20;;
34019;SDS011;20895;51.034;3.742;2023-06-19T08:48:49;10.93;;;9.03;;
34019;SDS011;20895;51.034;3.742;2023-06-19T08:51:15;11.60;;;10.43;;
34019;SDS011;20895;51.034;3.742;2023-06-19T08:53:44;14.50;;;10.77;;
34019;SDS011;20895;51.034;3.742;2023-06-19T08:56:10;11.70;;;10.50;;
34019;SDS011;20895;51.034;3.742;2023-06-19T08:58:35;14.13;;;10.52;;
34019;SDS011;20895;51.034;3.742;2023-06-19T09:01:01;12.45;;;9.27;;
34019;SDS011;20895;51.034;3.742;2023-06-19T09:03:27;11.13;;;9.45;;
34019;SDS011;20895;51.034;3.742;2023-06-19T09:05:52;12.82;;;10.43;;
34019;SDS011;20895;51.034;3.742;2023-06-19T09:08:18;10.90;;;9.55;;
34019;SDS011;20895;51.034;3.742;2023-06-19T09:10:53;12.52;;;10.05;;
34019;SDS011;20895;51.034;3.742;2023-06-19T09:13:18;12.00;;;9.30;;
34019;SDS011;20895;51.034;3.742;2023-06-19T09:15:44;13.17;;;10.60;;
34019;SDS011;20895;51.034;3.742;2023-06-19T09:18:10;14.07;;;10.10;;
34019;SDS011;20895;51.034;3.742;2023-06-19T09:20:40;14.68;;;11.05;;
34019;SDS011;20895;51.034;3.742;2023-06-19T09:23:09;16.48;;;10.05;;
34019;SDS011;20895;51.034;3.742;2023-06-19T09:25:43;12.13;;;9.18;;
34019;SDS011;20895;51.034;3.742;2023-06-19T09:28:16;12.80;;;9.70;;
34019;SDS011;20895;51.034;3.742;2023-06-19T09:30:50;17.37;;;11.03;;
34019;SDS011;20895;51.034;3.742;2023-06-19T09:33:16;11.68;;;10.10;;
34019;SDS011;20895;51.034;3.742;2023-06-19T09:35:41;13.85;;;9.93;;
34019;SDS011;20895;51.034;3.742;2023-06-19T09:38:06;10.20;;;9.10;;
34019;SDS011;20895;51.034;3.742;2023-06-19T09:40:31;10.75;;;9.60;;
34019;SDS011;20895;51.034;3.742;2023-06-19T09:42:57;10.90;;;9.35;;
34019;SDS011;20895;51.034;3.742;2023-06-19T09:45:23;12.52;;;9.70;;
34019;SDS011;20895;51.034;3.742;2023-06-19T09:47:48;14.57;;;9.57;;
34019;SDS011;20895;51.034;3.742;2023-06-19T09:50:16;11.55;;;9.38;;
34019;SDS011;20895;51.034;3.742;2023-06-19T09:52:42;12.07;;;8.68;;
34019;SDS011;20895;51.034;3.742;2023-06-19T09:55:08;11.35;;;8.68;;
34019;SDS011;20895;51.034;3.742;2023-06-19T09:57:35;12.07;;;9.95;;
34019;SDS011;20895;51.034;3.742;2023-06-19T10:00:03;13.43;;;8.52;;
34019;SDS011;20895;51.034;3.742;2023-06-19T10:02:35;10.05;;;7.95;;
34019;SDS011;20895;51.034;3.742;2023-06-19T10:05:00;10.50;;;8.13;;
34019;SDS011;20895;51.034;3.742;2023-06-19T10:07:26;11.90;;;8.73;;
34019;SDS011;20895;51.034;3.742;2023-06-19T10:12:22;10.43;;;7.05;;
34019;SDS011;20895;51.034;3.742;2023-06-19T10:14:58;10.95;;;8.65;;
34019;SDS011;20895;51.034;3.742;2023-06-19T10:17:32;14.00;;;9.45;;
34019;SDS011;20895;51.034;3.742;2023-06-19T10:19:57;14.57;;;8.70;;
34019;SDS011;20895;51.034;3.742;2023-06-19T10:22:22;10.00;;;7.67;;
34019;SDS011;20895;51.034;3.742;2023-06-19T10:24:51;9.93;;;7.60;;
34019;SDS011;20895;51.034;3.742;2023-06-19T10:27:22;10.80;;;7.53;;
34019;SDS011;20895;51.034;3.742;2023-06-19T10:29:54;11.10;;;7.63;;
34019;SDS011;20895;51.034;3.742;2023-06-19T10:32:19;11.30;;;7.77;;
34019;SDS011;20895;51.034;3.742;2023-06-19T10:34:45;9.85;;;8.57;;
34019;SDS011;20895;51.034;3.742;2023-06-19T10:37:12;12.13;;;8.43;;
34019;SDS011;20895;51.034;3.742;2023-06-19T10:39:37;8.95;;;7.72;;
34019;SDS011;20895;51.034;3.742;2023-06-19T10:42:06;11.43;;;9.10;;
34019;SDS011;20895;51.034;3.742;2023-06-19T10:44:32;11.18;;;7.88;;
34019;SDS011;20895;51.034;3.742;2023-06-19T10:46:57;11.95;;;8.75;;
34019;SDS011;20895;51.034;3.742;2023-06-19T10:49:23;10.38;;;8.27;;
34019;SDS011;20895;51.034;3.742;2023-06-19T10:51:48;14.15;;;10.20;;
34019;SDS011;20895;51.034;3.742;2023-06-19T10:54:14;9.07;;;8.17;;
34019;SDS011;20895;51.034;3.742;2023-06-19T10:56:39;9.53;;;6.77;;
34019;SDS011;20895;51.034;3.742;2023-06-19T10:59:05;10.68;;;7.40;;
34019;SDS011;20895;51.034;3.742;2023-06-19T11:01:40;9.68;;;6.95;;
34019;SDS011;20895;51.034;3.742;2023-06-19T11:04:07;9.73;;;6.97;;
34019;SDS011;20895;51.034;3.742;2023-06-19T11:06:33;10.38;;;6.80;;
34019;SDS011;20895;51.034;3.742;2023-06-19T11:08:59;9.23;;;7.95;;
34019;SDS011;20895;51.034;3.742;2023-06-19T11:11:35;9.18;;;7.47;;
34019;SDS011;20895;51.034;3.742;2023-06-19T11:14:00;9.77;;;7.30;;
34019;SDS011;20895;51.034;3.742;2023-06-19T11:16:25;8.75;;;6.20;;
34019;SDS011;20895;51.034;3.742;2023-06-19T11:18:55;8.18;;;6.75;;
34019;SDS011;20895;51.034;3.742;2023-06-19T11:21:20;9.27;;;6.15;;
34019;SDS011;20895;51.034;3.742;2023-06-19T11:23:47;10.02;;;6.78;;
34019;SDS011;20895;51.034;3.742;2023-06-19T11:26:12;11.57;;;8.43;;
34019;SDS011;20895;51.034;3.742;2023-06-19T11:28:38;7.40;;;6.10;;
34019;SDS011;20895;51.034;3.742;2023-06-19T11:31:03;7.43;;;6.32;;
34019;SDS011;20895;51.034;3.742;2023-06-19T11:33:28;9.68;;;6.60;;
34019;SDS011;20895;51.034;3.742;2023-06-19T11:35:54;6.97;;;6.07;;
34019;SDS011;20895;51.034;3.742;2023-06-19T11:38:24;8.52;;;7.07;;
34019;SDS011;20895;51.034;3.742;2023-06-19T11:40:51;10.40;;;7.78;;
34019;SDS011;20895;51.034;3.742;2023-06-19T11:43:29;8.23;;;7.18;;
34019;SDS011;20895;51.034;3.742;2023-06-19T11:46:15;11.70;;;6.82;;
34019;SDS011;20895;51.034;3.742;2023-06-19T11:48:41;7.47;;;6.43;;
34019;SDS011;20895;51.034;3.742;2023-06-19T11:51:06;8.73;;;6.57;;
34019;SDS011;20895;51.034;3.742;2023-06-19T11:53:33;11.00;;;8.68;;
34019;SDS011;20895;51.034;3.742;2023-06-19T11:55:58;7.90;;;7.13;;
34019;SDS011;20895;51.034;3.742;2023-06-19T11:58:23;7.43;;;5.50;;
34019;SDS011;20895;51.034;3.742;2023-06-19T12:00:48;7.85;;;5.80;;
34019;SDS011;20895;51.034;3.742;2023-06-19T12:03:14;6.88;;;5.78;;
34019;SDS011;20895;51.034;3.742;2023-06-19T12:05:39;5.80;;;5.10;;
34019;SDS011;20895;51.034;3.742;2023-06-19T12:08:04;11.05;;;5.60;;
34019;SDS011;20895;51.034;3.742;2023-06-19T12:10:30;7.40;;;5.60;;
34019;SDS011;20895;51.034;3.742;2023-06-19T12:12:56;7.75;;;5.47;;
34019;SDS011;20895;51.034;3.742;2023-06-19T12:15:21;6.93;;;5.70;;
34019;SDS011;20895;51.034;3.742;2023-06-19T12:17:47;12.85;;;6.18;;
34019;SDS011;20895;51.034;3.742;2023-06-19T12:20:12;9.70;;;4.82;;
34019;SDS011;20895;51.034;3.742;2023-06-19T12:22:39;8.80;;;5.53;;
34019;SDS011;20895;51.034;3.742;2023-06-19T12:25:04;9.20;;;6.50;;
34019;SDS011;20895;51.034;3.742;2023-06-19T12:27:30;7.80;;;5.80;;
34019;SDS011;20895;51.034;3.742;2023-06-19T12:29:55;7.63;;;5.90;;
34019;SDS011;20895;51.034;3.742;2023-06-19T12:32:20;7.65;;;5.85;;
34019;SDS011;20895;51.034;3.742;2023-06-19T12:34:46;10.13;;;7.85;;
34019;SDS011;20895;51.034;3.742;2023-06-19T12:37:15;7.30;;;6.60;;
34019;SDS011;20895;51.034;3.742;2023-06-19T12:39:40;6.03;;;5.43;;
34019;SDS011;20895;51.034;3.742;2023-06-19T12:42:06;8.70;;;5.20;;
34019;SDS011;20895;51.034;3.742;2023-06-19T12:44:31;5.93;;;5.03;;
34019;SDS011;20895;51.034;3.742;2023-06-19T12:46:56;6.25;;;5.20;;
34019;SDS011;20895;51.034;3.742;2023-06-19T12:49:23;7.47;;;6.78;;
34019;SDS011;20895;51.034;3.742;2023-06-19T12:51:48;8.53;;;6.23;;
34019;SDS011;20895;51.034;3.742;2023-06-19T12:54:16;7.57;;;6.72;;
34019;SDS011;20895;51.034;3.742;2023-06-19T12:56:41;6.55;;;4.65;;
34019;SDS011;20895;51.034;3.742;2023-06-19T12:59:06;7.80;;;4.87;;
34019;SDS011;20895;51.034;3.742;2023-06-19T13:01:32;6.95;;;4.53;;
34019;SDS011;20895;51.034;3.742;2023-06-19T13:03:57;7.13;;;5.43;;
34019;SDS011;20895;51.034;3.742;2023-06-19T13:06:22;9.60;;;5.80;;
34019;SDS011;20895;51.034;3.742;2023-06-19T13:08:47;8.60;;;4.80;;
34019;SDS011;20895;51.034;3.742;2023-06-19T13:11:13;8.02;;;5.00;;
34019;SDS011;20895;51.034;3.742;2023-06-19T13:13:38;7.37;;;4.50;;
34019;SDS011;20895;51.034;3.742;2023-06-19T13:16:03;9.57;;;5.55;;
34019;SDS011;20895;51.034;3.742;2023-06-19T13:18:28;11.00;;;5.33;;
34019;SDS011;20895;51.034;3.742;2023-06-19T13:20:54;5.95;;;4.65;;
34019;SDS011;20895;51.034;3.742;2023-06-19T13:23:19;6.37;;;4.80;;
34019;SDS011;20895;51.034;3.742;2023-06-19T13:25:44;8.60;;;4.17;;
34019;SDS011;20895;51.034;3.742;2023-06-19T13:28:09;6.72;;;4.32;;
34019;SDS011;20895;51.034;3.742;2023-06-19T13:30:34;5.00;;;4.27;;
34019;SDS011;20895;51.034;3.742;2023-06-19T13:33:00;6.13;;;5.05;;
34019;SDS011;20895;51.034;3.742;2023-06-19T13:35:25;5.80;;;3.70;;
34019;SDS011;20895;51.034;3.742;2023-06-19T13:37:50;4.90;;;3.83;;
34019;SDS011;20895;51.034;3.742;2023-06-19T13:40:16;6.57;;;4.33;;
34019;SDS011;20895;51.034;3.742;2023-06-19T13:42:41;10.47;;;5.00;;
34019;SDS011;20895;51.034;3.742;2023-06-19T13:45:06;6.33;;;4.20;;
34019;SDS011;20895;51.034;3.742;2023-06-19T13:47:32;4.63;;;3.75;;
34019;SDS011;20895;51.034;3.742;2023-06-19T13:49:57;4.97;;;3.27;;
34019;SDS011;20895;51.034;3.742;2023-06-19T13:52:22;8.48;;;4.72;;
34019;SDS011;20895;51.034;3.742;2023-06-19T13:54:47;7.30;;;3.80;;
34019;SDS011;20895;51.034;3.742;2023-06-19T13:57:12;5.37;;;3.50;;
34019;SDS011;20895;51.034;3.742;2023-06-19T13:59:38;4.93;;;3.93;;
34019;SDS011;20895;51.034;3.742;2023-06-19T14:02:03;4.13;;;3.30;;
34019;SDS011;20895;51.034;3.742;2023-06-19T14:04:28;6.78;;;4.32;;
34019;SDS011;20895;51.034;3.742;2023-06-19T14:06:54;5.27;;;3.77;;
34019;SDS011;20895;51.034;3.742;2023-06-19T14:09:20;4.80;;;4.00;;
34019;SDS011;20895;51.034;3.742;2023-06-19T14:11:45;11.93;;;4.88;;
34019;SDS011;20895;51.034;3.742;2023-06-19T14:14:10;8.50;;;4.73;;
34019;SDS011;20895;51.034;3.742;2023-06-19T14:16:35;5.93;;;4.35;;
34019;SDS011;20895;51.034;3.742;2023-06-19T14:19:01;6.20;;;3.57;;
34019;SDS011;20895;51.034;3.742;2023-06-19T14:21:26;6.35;;;4.32;;
34019;SDS011;20895;51.034;3.742;2023-06-19T14:23:52;5.80;;;3.92;;
34019;SDS011;20895;51.034;3.742;2023-06-19T14:26:17;6.45;;;5.13;;
34019;SDS011;20895;51.034;3.742;2023-06-19T14:28:42;5.28;;;3.35;;
34019;SDS011;20895;51.034;3.742;2023-06-19T14:31:07;6.38;;;3.75;;
34019;SDS011;20895;51.034;3.742;2023-06-19T14:33:33;5.57;;;4.13;;